Details for BA - British Airways at EGLL




Go Back


Latest METAR
Local Time

EGLL 221020Z AUTO 27010KT 9999 -RA BKN032/// BKN046/// //////TCU 12/10 Q1020 NOSIG
22/09/2018, 11:47:16

Description
Results
BA - British Airways Logo
Number of Pilots based at EGLL
1 Pilots Based here
Number of BA - British Airways Flights Departed from EGLL
123 Flights Departed
Number of BA - British Airways Flights Arrived at EGLL
126 Flights Arrived
Number of BA - British Airways Schedules Departing from EGLL
668 Schedules
Number of BA - British Airways Schedules Arriving at EGLL
747 Schedules
Number of BA - British Airways Schedules Departing from EGLL availible today
327 Schedules Today
Number of BA - British Airways Schedules Arriving at EGLL availible today
323 Schedules Today
Average Landing Rate at EGLL
-186 fpm
BA - British Airways Average Landing Rate at EGLL
-183 fpm
Total Fuel Purchased at EGLL by BA - British Airways
1,294,741.57 kgs / 2,854,387.27 lbs

Pilots Based at EGLL


Pilot ID
Pilot Name
Pilot Rank
No. of Flights
No. of Flying Hours
Chris Nicholson
53
133.39
Content